createdAt,value
2023-02-06T00:01:45.365Z,98546.63
2023-02-06T00:04:15.652Z,98518.91
2023-02-06T00:06:44.459Z,98530.38
2023-02-06T00:09:12.855Z,98532.63
2023-02-06T00:11:41.066Z,98479.28
2023-02-06T00:14:09.261Z,98447.97
2023-02-06T00:16:37.682Z,98546.13
2023-02-06T00:19:06.323Z,98554.28
2023-02-06T00:21:35.870Z,98518.16
2023-02-06T00:24:05.641Z,98491.59
2023-02-06T00:26:33.834Z,98518.25
2023-02-06T00:29:02.422Z,98572.69
2023-02-06T00:31:31.040Z,98516.41
2023-02-06T00:33:59.899Z,98515.41
2023-02-06T00:36:28.128Z,98570.78
2023-02-06T00:38:57.950Z,98525.44
2023-02-06T00:41:26.150Z,98548.09
2023-02-06T00:43:54.313Z,98588.34
2023-02-06T00:46:25.214Z,98575.16
2023-02-06T00:48:53.418Z,98587.78
2023-02-06T00:51:21.652Z,98577.06
2023-02-06T00:53:51.217Z,98549.22
2023-02-06T00:56:22.089Z,98535.47
2023-02-06T00:58:50.338Z,98537.81
2023-02-06T01:01:26.428Z,98540.53
2023-02-06T01:04:55.510Z,98536.38
2023-02-06T01:07:23.729Z,98523.94
2023-02-06T01:09:52.994Z,98535.47
2023-02-06T01:12:22.771Z,98639.88
2023-02-06T01:14:50.983Z,98516.16
2023-02-06T01:17:19.156Z,98518.16
2023-02-06T01:19:47.348Z,98480.78
2023-02-06T01:22:15.542Z,98556.78
2023-02-06T01:24:45.603Z,98515.25
2023-02-06T01:27:13.794Z,98551.34
2023-02-06T01:29:43.802Z,98512.16
2023-02-06T01:32:12.193Z,98532.81
2023-02-06T01:34:40.387Z,98489.84
2023-02-06T01:37:08.643Z,98459.16
2023-02-06T01:39:36.857Z,98541.31
2023-02-06T01:42:06.154Z,98517.88
2023-02-06T01:44:44.017Z,98504.19
2023-02-06T01:47:12.453Z,98537.91
2023-02-06T01:49:45.594Z,98477.19
2023-02-06T01:52:19.827Z,98534.44
2023-02-06T01:54:53.350Z,98516.28
2023-02-06T01:57:23.349Z,98512.44
2023-02-06T01:59:56.096Z,98468.78
2023-02-06T02:02:26.841Z,98466.72
2023-02-06T02:04:56.149Z,98550.75
2023-02-06T02:07:28.902Z,98527.41
2023-02-06T02:09:57.291Z,98570.19
2023-02-06T02:12:25.569Z,98520.00
2023-02-06T02:14:55.949Z,98501.19
2023-02-06T02:17:39.360Z,98534.81
2023-02-06T02:20:57.239Z,98524.16
2023-02-06T02:23:35.777Z,98629.81
2023-02-06T02:27:04.546Z,98498.75
2023-02-06T02:30:11.626Z,98524.94
2023-02-06T02:33:10.891Z,98593.09
2023-02-06T02:35:51.212Z,98531.38
2023-02-06T02:38:37.264Z,98539.72
2023-02-06T02:41:12.022Z,98536.34
2023-02-06T02:43:45.735Z,98579.53
2023-02-06T02:46:25.596Z,98551.59
2023-02-06T02:48:58.256Z,98560.69
2023-02-06T02:51:28.454Z,98543.34
2023-02-06T02:53:57.699Z,98493.41
2023-02-06T02:56:27.660Z,98507.44
2023-02-06T02:59:02.266Z,98520.66
2023-02-06T03:01:40.961Z,98535.91
2023-02-06T03:04:28.113Z,98503.34
2023-02-06T03:07:10.101Z,98482.03
2023-02-06T03:09:54.785Z,98522.34
2023-02-06T03:12:34.157Z,98536.03
2023-02-06T03:15:08.807Z,98489.28
2023-02-06T03:17:41.980Z,98541.53
2023-02-06T03:20:11.961Z,98507.66
2023-02-06T03:22:43.674Z,98481.19
2023-02-06T03:25:15.060Z,98469.28
2023-02-06T03:27:48.210Z,98527.13
2023-02-06T03:30:18.556Z,98375.84
2023-02-06T03:32:51.213Z,98528.59
2023-02-06T03:35:23.112Z,98468.16
2023-02-06T03:37:52.839Z,98488.38
2023-02-06T03:40:24.011Z,98520.97
2023-02-06T03:42:57.299Z,98514.72
2023-02-06T03:45:30.240Z,98524.69
2023-02-06T03:48:02.545Z,98531.75
2023-02-06T03:50:34.735Z,98494.53
2023-02-06T03:53:05.678Z,98515.44
2023-02-06T03:55:34.149Z,98464.78
2023-02-06T03:58:08.127Z,98532.84
2023-02-06T04:00:37.465Z,98548.41
2023-02-06T04:03:06.237Z,98513.34
2023-02-06T04:05:34.709Z,98533.88
2023-02-06T04:08:05.379Z,98538.72
2023-02-06T04:10:33.552Z,98542.38
2023-02-06T04:13:01.665Z,98531.47
2023-02-06T04:15:29.825Z,98517.22
2023-02-06T04:18:01.141Z,98532.97
2023-02-06T04:20:30.672Z,98551.25
2023-02-06T04:22:59.832Z,98459.50
2023-02-06T04:25:29.455Z,98558.41
2023-02-06T04:27:57.705Z,98547.97
2023-02-06T04:30:26.061Z,98511.78
2023-02-06T04:32:54.319Z,98573.72
2023-02-06T04:35:22.568Z,98520.75
2023-02-06T04:37:50.732Z,98565.00
2023-02-06T04:40:19.388Z,98541.34
2023-02-06T04:42:48.913Z,98557.03
2023-02-06T04:45:17.382Z,98518.16
2023-02-06T04:47:49.377Z,98580.97
2023-02-06T04:50:18.118Z,98539.72
2023-02-06T04:52:46.429Z,98567.88
2023-02-06T04:55:14.712Z,98552.38
2023-02-06T04:57:43.390Z,98528.19
2023-02-06T05:00:14.985Z,98520.34
2023-02-06T05:03:06.819Z,98502.97
2023-02-06T05:05:35.333Z,98515.81
2023-02-06T05:08:03.667Z,98543.41
2023-02-06T05:10:31.875Z,98534.66
2023-02-06T05:13:00.091Z,98521.38
2023-02-06T05:15:29.688Z,98487.22
2023-02-06T05:17:58.115Z,98499.97
2023-02-06T05:20:26.342Z,98489.78
2023-02-06T05:22:54.574Z,98525.53
2023-02-06T05:25:23.282Z,98493.50
2023-02-06T05:27:51.840Z,98467.47
2023-02-06T05:30:20.337Z,98407.03
2023-02-06T05:32:49.883Z,98526.19
2023-02-06T05:35:18.505Z,98509.69
2023-02-06T05:37:47.202Z,98522.69
2023-02-06T05:40:15.555Z,98515.47
2023-02-06T05:42:43.945Z,98525.66
2023-02-06T05:45:12.158Z,98523.06
2023-02-06T05:47:40.353Z,98553.91
2023-02-06T05:50:10.475Z,98541.06
2023-02-06T05:52:38.789Z,98511.75
2023-02-06T05:55:08.350Z,98520.66
2023-02-06T05:57:36.715Z,98496.91
2023-02-06T06:00:07.852Z,98529.94
2023-02-06T06:02:42.107Z,98549.31
2023-02-06T06:05:11.713Z,98548.16
2023-02-06T06:07:40.227Z,98537.91
2023-02-06T06:10:09.942Z,98519.63
2023-02-06T06:12:38.659Z,98587.88
2023-02-06T06:15:08.260Z,98540.22
2023-02-06T06:17:36.479Z,98546.03
2023-02-06T06:20:05.458Z,98557.72
2023-02-06T06:22:35.127Z,98562.63
2023-02-06T06:25:05.064Z,98527.50
2023-02-06T06:27:33.263Z,98538.38
2023-02-06T06:30:01.495Z,98584.72
2023-02-06T06:32:29.749Z,98578.00
2023-02-06T06:34:57.953Z,98478.09
2023-02-06T06:37:26.175Z,98521.19
2023-02-06T06:39:55.843Z,98517.28
2023-02-06T06:42:24.049Z,98538.63
2023-02-06T06:44:52.263Z,98600.16
2023-02-06T06:47:20.447Z,98520.66
2023-02-06T06:49:48.672Z,98526.50
2023-02-06T06:52:25.061Z,98525.38
2023-02-06T06:54:55.556Z,98522.59
2023-02-06T06:57:24.313Z,98553.09
2023-02-06T06:59:53.087Z,98541.91
2023-02-06T07:02:21.297Z,98533.72
2023-02-06T07:04:56.514Z,98557.38
2023-02-06T07:07:24.657Z,98537.22
2023-02-06T07:09:52.846Z,98571.63
2023-02-06T07:12:22.327Z,98565.75
2023-02-06T07:14:50.436Z,98574.03
2023-02-06T07:17:18.727Z,98555.91
2023-02-06T07:19:48.699Z,98533.56
2023-02-06T07:22:17.311Z,98380.59
2023-02-06T07:24:45.520Z,98583.44
2023-02-06T07:27:13.945Z,98494.38
2023-02-06T07:29:43.542Z,98546.84
2023-02-06T07:32:12.684Z,98545.03
2023-02-06T07:34:40.898Z,98278.38
2023-02-06T07:37:09.127Z,98519.69
2023-02-06T07:39:37.341Z,98546.84
2023-02-06T07:42:06.016Z,98553.50
2023-02-06T07:44:51.267Z,98527.19
2023-02-06T07:47:19.493Z,98485.97
2023-02-06T07:49:48.043Z,98479.09
2023-02-06T07:52:16.250Z,98564.59
2023-02-06T07:54:44.557Z,98550.38
2023-02-06T07:57:12.811Z,98535.13
2023-02-06T07:59:41.041Z,98485.50
2023-02-06T08:02:13.143Z,98560.97
2023-02-06T08:04:41.379Z,98555.84
2023-02-06T08:07:14.812Z,98549.28
2023-02-06T08:09:43.227Z,98524.41
2023-02-06T08:12:12.119Z,98557.72
2023-02-06T08:14:40.633Z,98547.84
2023-02-06T08:17:08.855Z,98517.78
2023-02-06T08:19:38.423Z,98539.91
2023-02-06T08:22:06.852Z,98587.25
2023-02-06T08:24:35.061Z,98551.19
2023-02-06T08:27:03.649Z,98561.53
2023-02-06T08:29:31.891Z,98562.19
2023-02-06T08:32:00.211Z,98521.41
2023-02-06T08:34:28.464Z,98541.56
2023-02-06T08:36:57.997Z,98562.25
2023-02-06T08:39:26.078Z,98556.00
2023-02-06T08:41:54.258Z,98506.38
2023-02-06T08:44:23.408Z,98580.56
2023-02-06T08:46:58.863Z,98489.84
2023-02-06T08:49:32.918Z,98525.59
2023-02-06T08:52:02.437Z,98557.59
2023-02-06T08:54:32.192Z,98557.59
2023-02-06T08:57:02.615Z,98514.50
2023-02-06T08:59:31.190Z,98553.59
2023-02-06T09:02:00.198Z,98557.94
2023-02-06T09:04:35.381Z,98545.16
2023-02-06T09:07:05.138Z,98571.03
2023-02-06T09:09:33.337Z,98498.13
2023-02-06T09:12:03.822Z,98517.34
2023-02-06T09:14:32.739Z,98514.84
2023-02-06T09:17:00.893Z,98474.16
2023-02-06T09:19:29.205Z,98455.50
2023-02-06T09:21:58.230Z,98527.69
2023-02-06T09:24:30.166Z,98518.41
2023-02-06T09:27:00.226Z,98509.56
2023-02-06T09:29:31.576Z,98512.59
2023-02-06T09:32:01.392Z,98526.84
2023-02-06T09:34:30.058Z,98484.06
2023-02-06T09:36:58.393Z,98485.97
2023-02-06T09:39:28.144Z,98517.72
2023-02-06T09:42:00.678Z,98480.22
2023-02-06T09:44:33.923Z,98476.19
2023-02-06T09:47:18.282Z,98478.63
2023-02-06T09:49:50.620Z,98484.34
2023-02-06T09:52:40.245Z,98143.94
2023-02-06T09:55:16.939Z,98348.84
2023-02-06T09:57:52.923Z,98493.00
2023-02-06T10:00:38.721Z,98497.47
2023-02-06T10:03:30.550Z,98475.66
2023-02-06T10:06:13.971Z,98443.28
2023-02-06T10:08:49.890Z,98441.59
2023-02-06T10:11:33.847Z,98471.13
2023-02-06T10:14:06.963Z,98483.59
2023-02-06T10:16:42.268Z,98453.94
2023-02-06T10:19:16.957Z,98480.84
2023-02-06T10:21:53.193Z,98475.63
2023-02-06T10:24:35.706Z,98452.34
2023-02-06T10:27:12.866Z,98450.75
2023-02-06T10:29:44.153Z,98464.75
2023-02-06T10:32:39.653Z,98418.75
2023-02-06T10:35:33.999Z,98441.63
2023-02-06T10:38:30.217Z,98401.78
2023-02-06T10:41:09.465Z,98472.28
2023-02-06T10:43:48.017Z,98432.63
2023-02-06T10:46:38.747Z,98442.75
2023-02-06T10:49:17.969Z,98413.81
2023-02-06T10:51:49.169Z,98356.78
2023-02-06T10:54:23.450Z,98434.47
2023-02-06T10:56:55.125Z,98450.72
2023-02-06T10:59:29.807Z,98463.84
2023-02-06T11:02:19.221Z,98348.06
2023-02-06T11:05:19.911Z,98416.47
2023-02-06T11:07:52.831Z,98440.94
2023-02-06T11:10:25.284Z,98412.63
2023-02-06T11:13:01.857Z,98415.78
2023-02-06T11:15:38.236Z,98444.72
2023-02-06T11:18:11.076Z,98412.13
2023-02-06T11:20:43.409Z,98435.78
2023-02-06T11:23:18.883Z,98353.66
2023-02-06T11:25:50.550Z,98232.78
2023-02-06T11:28:21.661Z,98402.06
2023-02-06T11:31:00.318Z,98360.31
2023-02-06T11:33:40.737Z,98378.06
2023-02-06T11:36:25.203Z,98355.00
2023-02-06T11:39:00.757Z,98344.75
2023-02-06T11:41:30.336Z,98312.25
2023-02-06T11:44:06.295Z,98375.72
2023-02-06T11:46:38.859Z,98380.91
2023-02-06T11:49:24.722Z,98368.72
2023-02-06T11:51:55.778Z,98030.00
2023-02-06T11:54:28.956Z,98387.34
2023-02-06T11:57:07.859Z,98315.66
2023-02-06T11:59:38.092Z,98353.94
2023-02-06T12:02:28.913Z,98315.44
2023-02-06T12:05:07.707Z,98313.06
2023-02-06T12:07:40.934Z,98358.06
2023-02-06T12:10:16.377Z,98345.06
2023-02-06T12:12:50.836Z,98430.47
2023-02-06T12:15:44.868Z,98345.88
2023-02-06T12:18:23.891Z,98382.84
2023-02-06T12:20:59.185Z,98293.75
2023-02-06T12:23:32.897Z,98350.16
2023-02-06T12:26:06.252Z,98351.91
2023-02-06T12:28:43.707Z,98371.47
2023-02-06T12:31:20.604Z,98356.75
2023-02-06T12:33:55.207Z,98322.19
2023-02-06T12:36:32.272Z,98376.13
2023-02-06T12:39:05.485Z,98336.03
2023-02-06T12:41:53.281Z,98314.44
2023-02-06T12:44:28.276Z,98316.72
2023-02-06T12:47:05.888Z,98368.72
2023-02-06T12:49:49.382Z,98320.34
2023-02-06T12:52:25.343Z,98276.31
2023-02-06T12:55:03.989Z,98323.53
2023-02-06T12:57:34.520Z,98267.13
2023-02-06T13:00:33.270Z,98330.78
2023-02-06T13:03:23.897Z,98319.66
2023-02-06T13:05:56.040Z,98284.41
2023-02-06T13:08:29.882Z,98274.84
2023-02-06T13:11:06.156Z,98316.44
2023-02-06T13:13:37.804Z,98334.00
2023-02-06T13:16:08.064Z,98314.13
2023-02-06T13:18:55.491Z,98327.81
2023-02-06T13:21:29.160Z,98311.03
2023-02-06T13:24:20.225Z,98301.81
2023-02-06T13:27:16.073Z,98328.75
2023-02-06T13:29:46.341Z,98283.53
2023-02-06T13:32:42.963Z,98278.91
2023-02-06T13:35:24.503Z,98327.69
2023-02-06T13:38:26.350Z,98322.69
2023-02-06T13:41:36.929Z,98297.44
2023-02-06T13:44:12.838Z,98319.88
2023-02-06T13:47:29.679Z,98321.63
2023-02-06T13:50:40.283Z,98321.09
2023-02-06T13:53:55.490Z,98315.53
2023-02-06T13:56:42.951Z,98363.44
2023-02-06T13:59:16.856Z,98316.59
2023-02-06T14:01:46.120Z,98330.56
2023-02-06T14:04:24.982Z,98321.16
2023-02-06T14:07:11.464Z,98266.84
2023-02-06T14:10:18.528Z,98188.25
2023-02-06T14:13:03.014Z,98309.59
2023-02-06T14:15:40.998Z,98327.25
2023-02-06T14:18:28.073Z,98272.94
2023-02-06T14:21:08.795Z,98338.72
2023-02-06T14:23:52.553Z,98304.72
2023-02-06T14:26:36.828Z,98378.56
2023-02-06T14:29:18.765Z,98347.75
2023-02-06T14:32:15.070Z,98269.41
2023-02-06T14:35:03.692Z,98338.56
2023-02-06T14:37:58.631Z,98296.22
2023-02-06T14:40:29.898Z,98318.84
2023-02-06T14:43:03.493Z,98317.16
2023-02-06T14:45:41.714Z,98299.38
2023-02-06T14:48:25.237Z,98337.78
2023-02-06T14:50:56.980Z,98350.59
2023-02-06T14:53:31.246Z,98252.72
2023-02-06T14:56:15.353Z,98202.34
2023-02-06T14:58:47.088Z,98295.94
2023-02-06T15:01:23.484Z,98326.84
2023-02-06T15:03:54.742Z,98330.66
2023-02-06T15:06:35.079Z,98316.38
2023-02-06T15:09:03.627Z,98339.34
2023-02-06T15:11:33.451Z,98330.38
2023-02-06T15:14:06.034Z,98314.84
2023-02-06T15:16:47.737Z,98297.06
2023-02-06T15:19:22.898Z,98281.50
2023-02-06T15:21:53.750Z,98289.78
2023-02-06T15:24:59.205Z,98316.38
2023-02-06T15:27:30.324Z,98264.19
2023-02-06T15:30:01.967Z,98298.19
2023-02-06T15:32:33.384Z,98321.09
2023-02-06T15:35:02.998Z,98181.50
2023-02-06T15:37:34.816Z,98282.22
2023-02-06T15:40:15.804Z,98290.47
2023-02-06T15:42:44.183Z,98293.16
2023-02-06T15:45:22.470Z,98230.34
2023-02-06T15:47:52.110Z,98295.75
2023-02-06T15:50:23.844Z,98264.22
2023-02-06T15:52:52.344Z,98293.69
2023-02-06T15:55:30.733Z,98296.66
2023-02-06T15:58:01.667Z,98260.59
2023-02-06T16:00:34.885Z,98309.03
2023-02-06T16:03:07.790Z,98266.69
2023-02-06T16:05:43.677Z,98299.31
2023-02-06T16:08:14.395Z,98230.81
2023-02-06T16:10:44.011Z,98355.78
2023-02-06T16:13:19.561Z,98285.25
2023-02-06T16:16:21.811Z,98280.94
2023-02-06T16:18:52.257Z,98289.91
2023-02-06T16:21:29.142Z,98281.22
2023-02-06T16:24:16.610Z,98320.81
2023-02-06T16:26:48.070Z,98245.88
2023-02-06T16:29:27.157Z,98319.81
2023-02-06T16:32:03.247Z,98287.41
2023-02-06T16:34:40.661Z,98286.63
2023-02-06T16:37:14.708Z,98285.78
2023-02-06T16:39:44.641Z,98298.25
2023-02-06T16:42:16.918Z,98308.09
2023-02-06T16:44:49.658Z,98357.53
2023-02-06T16:47:22.003Z,98312.06
2023-02-06T16:49:52.254Z,98297.50
2023-02-06T16:52:25.896Z,98287.13
2023-02-06T16:54:57.835Z,98319.31
2023-02-06T16:57:31.489Z,98274.78
2023-02-06T17:00:00.233Z,98331.63
2023-02-06T17:02:29.882Z,98292.59
2023-02-06T17:05:12.207Z,98314.00
2023-02-06T17:07:40.729Z,98320.72
2023-02-06T17:10:10.621Z,98324.44
2023-02-06T17:12:38.825Z,98304.28
2023-02-06T17:15:08.469Z,98298.19
2023-02-06T17:17:38.055Z,98318.00
2023-02-06T17:20:19.932Z,98379.84
2023-02-06T17:22:50.612Z,98327.97
2023-02-06T17:25:19.327Z,98324.31
2023-02-06T17:27:48.957Z,98372.03
2023-02-06T17:30:20.487Z,98321.78
2023-02-06T17:32:50.269Z,98339.34
2023-02-06T17:35:18.997Z,98310.63
2023-02-06T17:37:47.323Z,98309.09
2023-02-06T17:40:21.960Z,98323.19
2023-02-06T17:42:50.784Z,98277.50
2023-02-06T17:45:19.316Z,98346.91
2023-02-06T17:47:49.478Z,98200.75
2023-02-06T17:50:20.279Z,98340.72
2023-02-06T17:52:49.001Z,98360.13
2023-02-06T17:55:17.788Z,98334.38
2023-02-06T17:57:45.984Z,98320.03
2023-02-06T18:00:19.167Z,98308.97
2023-02-06T18:02:48.905Z,98317.06
2023-02-06T18:05:17.361Z,98310.66
2023-02-06T18:07:45.693Z,98307.44
2023-02-06T18:10:13.884Z,98343.63
2023-02-06T18:12:42.175Z,98278.91
2023-02-06T18:15:13.660Z,98308.69
2023-02-06T18:17:42.402Z,98266.69
2023-02-06T18:20:15.454Z,98329.91
2023-02-06T18:22:44.228Z,98332.03
2023-02-06T18:25:15.579Z,98323.88
2023-02-06T18:27:45.995Z,98305.31
2023-02-06T18:30:15.596Z,98370.34
2023-02-06T18:32:44.089Z,98340.13
2023-02-06T18:35:14.926Z,98351.56
2023-02-06T18:37:43.734Z,98352.72
2023-02-06T18:40:13.315Z,98349.09
2023-02-06T18:42:54.451Z,98319.50
2023-02-06T18:45:25.669Z,98337.69
2023-02-06T18:47:53.947Z,98306.81
2023-02-06T18:50:23.960Z,98337.81
2023-02-06T18:52:53.628Z,98296.97
2023-02-06T18:55:21.891Z,98249.22
2023-02-06T18:57:50.845Z,98331.00
2023-02-06T19:00:22.800Z,98337.69
2023-02-06T19:02:51.385Z,98306.94
2023-02-06T19:05:20.582Z,98309.09
2023-02-06T19:07:52.836Z,98257.31
2023-02-06T19:10:22.941Z,98303.59
2023-02-06T19:12:51.309Z,98302.91
2023-02-06T19:15:19.870Z,98337.69
2023-02-06T19:17:49.501Z,98307.13
2023-02-06T19:20:17.880Z,98324.88
2023-02-06T19:22:46.088Z,98341.50
2023-02-06T19:25:15.660Z,98324.28
2023-02-06T19:27:43.997Z,98323.53
2023-02-06T19:30:14.137Z,98301.03
2023-02-06T19:32:43.456Z,98304.09
2023-02-06T19:35:11.978Z,98267.06
2023-02-06T19:37:43.743Z,98291.63
2023-02-06T19:40:12.613Z,98312.91
2023-02-06T19:42:42.152Z,98305.91
2023-02-06T19:45:10.423Z,98333.13
2023-02-06T19:47:38.669Z,98292.94
2023-02-06T19:50:08.108Z,98327.28
2023-02-06T19:52:36.361Z,98340.06
2023-02-06T19:55:05.128Z,98319.81
2023-02-06T19:57:33.420Z,98303.06
2023-02-06T20:00:04.636Z,98338.56
2023-02-06T20:02:33.582Z,98313.28
2023-02-06T20:05:02.801Z,98338.53
2023-02-06T20:07:31.920Z,98316.22
2023-02-06T20:10:00.206Z,98326.66
2023-02-06T20:12:28.518Z,98359.94
2023-02-06T20:14:56.802Z,98393.41
2023-02-06T20:17:26.993Z,98333.34
2023-02-06T20:19:55.459Z,98356.19
2023-02-06T20:22:23.886Z,98362.06
2023-02-06T20:24:52.323Z,98339.63
2023-02-06T20:27:20.518Z,98368.38
2023-02-06T20:29:49.633Z,98393.75
2023-02-06T20:32:19.457Z,98334.78
2023-02-06T20:34:49.129Z,98327.94
2023-02-06T20:37:17.948Z,98382.19
2023-02-06T20:39:46.170Z,98337.81
2023-02-06T20:42:15.408Z,98346.84
2023-02-06T20:44:45.148Z,98349.03
2023-02-06T20:47:13.305Z,98382.41
2023-02-06T20:49:41.944Z,98398.22
2023-02-06T20:52:11.451Z,98422.34
2023-02-06T20:54:39.822Z,98368.00
2023-02-06T20:57:08.039Z,98318.38
2023-02-06T20:59:36.194Z,98374.13
2023-02-06T21:02:04.516Z,98344.91
2023-02-06T21:04:34.351Z,98350.78
2023-02-06T21:07:02.662Z,98326.25
2023-02-06T21:09:32.349Z,98385.75
2023-02-06T21:12:00.663Z,98320.06
2023-02-06T21:14:30.062Z,98334.53
2023-02-06T21:16:58.779Z,98338.75
2023-02-06T21:19:29.218Z,98372.66
2023-02-06T21:21:57.503Z,98296.03
2023-02-06T21:24:25.749Z,98333.34
2023-02-06T21:26:55.436Z,98306.78
2023-02-06T21:29:23.830Z,98341.50
2023-02-06T21:32:03.631Z,98393.34
2023-02-06T21:34:35.613Z,98334.19
2023-02-06T21:37:05.914Z,98292.38
2023-02-06T21:39:34.194Z,98355.81
2023-02-06T21:42:04.214Z,98349.88
2023-02-06T21:44:32.418Z,98330.66
2023-02-06T21:47:00.652Z,98361.56
2023-02-06T21:49:28.930Z,98356.25
2023-02-06T21:51:59.841Z,98389.69
2023-02-06T21:54:29.427Z,98411.66
2023-02-06T21:56:58.664Z,98347.72
2023-02-06T21:59:28.671Z,98343.66
2023-02-06T22:01:56.930Z,98385.09
2023-02-06T22:04:25.174Z,98400.25
2023-02-06T22:06:53.424Z,98388.47
2023-02-06T22:09:21.649Z,98385.19
2023-02-06T22:11:50.236Z,98368.88
2023-02-06T22:14:19.751Z,98381.88
2023-02-06T22:16:49.380Z,98393.91
2023-02-06T22:19:18.117Z,98449.56
2023-02-06T22:21:46.652Z,98426.59
2023-02-06T22:24:15.071Z,98409.19
2023-02-06T22:26:44.070Z,98501.97
2023-02-06T22:29:15.485Z,98408.44
2023-02-06T22:31:44.750Z,98453.66
2023-02-06T22:34:20.420Z,98413.09
2023-02-06T22:36:51.141Z,98283.13
2023-02-06T22:39:19.780Z,98432.59
2023-02-06T22:41:48.906Z,98403.53
2023-02-06T22:44:19.238Z,98357.69
2023-02-06T22:46:51.346Z,98397.03
2023-02-06T22:49:22.327Z,98248.66
2023-02-06T22:51:50.665Z,98412.25
2023-02-06T22:54:19.038Z,98474.50
2023-02-06T22:56:47.382Z,98441.69
2023-02-06T22:59:18.356Z,98469.41
2023-02-06T23:01:49.607Z,98432.19
2023-02-06T23:04:23.386Z,98422.25
2023-02-06T23:06:53.003Z,98444.72
2023-02-06T23:09:24.344Z,98449.47
2023-02-06T23:11:54.027Z,98308.50
2023-02-06T23:14:22.337Z,98458.03
2023-02-06T23:16:51.075Z,98498.00
2023-02-06T23:19:21.663Z,98380.28
2023-02-06T23:21:52.230Z,98413.59
2023-02-06T23:24:21.313Z,98428.94
2023-02-06T23:26:51.695Z,98425.38
2023-02-06T23:29:20.948Z,98430.94
2023-02-06T23:31:50.164Z,98459.63
2023-02-06T23:34:23.638Z,98133.09
2023-02-06T23:36:52.909Z,98495.53
2023-02-06T23:39:22.464Z,98450.00
2023-02-06T23:41:50.914Z,98460.91
2023-02-06T23:44:19.808Z,98456.84
2023-02-06T23:46:48.754Z,98472.41
2023-02-06T23:49:16.988Z,98492.09
2023-02-06T23:51:46.578Z,98456.19
2023-02-06T23:54:14.839Z,98464.75
2023-02-06T23:56:43.205Z,98506.06
2023-02-06T23:59:12.638Z,98418.06
